createdAt,value
2022-12-15T00:01:47.613Z,-9.80
2022-12-15T00:04:33.366Z,-9.90
2022-12-15T00:07:22.373Z,-10.00
2022-12-15T00:10:08.111Z,-10.20
2022-12-15T00:12:53.639Z,-10.30
2022-12-15T00:15:39.523Z,-10.40
2022-12-15T00:18:27.680Z,-10.50
2022-12-15T00:21:16.705Z,-10.40
2022-12-15T00:24:02.859Z,-10.30
2022-12-15T00:26:48.654Z,-10.10
2022-12-15T00:29:34.552Z,-9.90
2022-12-15T00:32:20.374Z,-9.80
2022-12-15T00:35:07.558Z,-9.70
2022-12-15T00:37:54.156Z,-9.60
2022-12-15T00:40:22.780Z,-9.60
2022-12-15T00:42:51.387Z,-9.60
2022-12-15T00:45:19.824Z,-9.60
2022-12-15T00:47:47.251Z,-9.60
2022-12-15T00:50:37.261Z,-9.70
2022-12-15T00:53:22.970Z,-9.80
2022-12-15T00:56:08.599Z,-10.00
2022-12-15T00:58:54.265Z,-10.10
2022-12-15T01:01:40.046Z,-10.20
2022-12-15T01:04:26.101Z,-10.30
2022-12-15T01:07:13.231Z,-10.40
2022-12-15T01:10:00.502Z,-10.40
2022-12-15T01:12:46.398Z,-10.50
2022-12-15T01:15:31.850Z,-10.50
2022-12-15T01:18:17.695Z,-10.60
2022-12-15T01:20:55.586Z,-10.60
2022-12-15T01:23:25.512Z,-10.70
2022-12-15T01:25:54.403Z,-10.70
2022-12-15T01:28:23.756Z,-10.60
2022-12-15T01:30:52.873Z,-10.50
2022-12-15T01:33:22.775Z,-10.50
2022-12-15T01:35:58.217Z,-10.40
2022-12-15T01:38:28.932Z,-10.40
2022-12-15T01:40:58.977Z,-10.50
2022-12-15T01:43:30.623Z,-10.50
2022-12-15T01:46:04.553Z,-10.50
2022-12-15T01:48:42.853Z,-10.60
2022-12-15T01:51:29.013Z,-10.60
2022-12-15T01:54:03.609Z,-10.60
2022-12-15T01:56:37.969Z,-10.50
2022-12-15T01:59:10.802Z,-10.40
2022-12-15T02:01:41.190Z,-10.30
2022-12-15T02:04:10.161Z,-10.20
2022-12-15T02:06:39.354Z,-10.00
2022-12-15T02:09:09.658Z,-9.70
2022-12-15T02:12:00.575Z,-9.30
2022-12-15T02:14:54.540Z,-9.00
2022-12-15T02:17:34.488Z,-8.90
2022-12-15T02:20:33.241Z,-8.80
2022-12-15T02:23:35.619Z,-8.70
2022-12-15T02:26:30.815Z,-8.70
2022-12-15T02:29:13.303Z,-8.60
2022-12-15T02:31:54.361Z,-8.50
2022-12-15T02:34:32.861Z,-8.50
2022-12-15T02:37:07.346Z,-8.40
2022-12-15T02:39:36.518Z,-8.30
2022-12-15T02:42:08.413Z,-8.20
2022-12-15T02:44:41.256Z,-8.20
2022-12-15T02:47:29.542Z,-8.10
2022-12-15T02:50:23.023Z,-8.00
2022-12-15T02:53:04.305Z,-7.80
2022-12-15T02:55:40.867Z,-7.60
2022-12-15T02:58:16.656Z,-7.50
2022-12-15T03:00:50.216Z,-7.30
2022-12-15T03:03:23.823Z,-7.20
2022-12-15T03:05:53.294Z,-7.00
2022-12-15T03:08:21.912Z,-6.90
2022-12-15T03:10:52.427Z,-6.70
2022-12-15T03:13:20.805Z,-6.60
2022-12-15T03:15:49.507Z,-6.40
2022-12-15T03:18:19.778Z,-6.30
2022-12-15T03:20:48.310Z,-6.30
2022-12-15T03:23:18.312Z,-6.30
2022-12-15T03:25:49.928Z,-6.20
2022-12-15T03:28:18.890Z,-6.30
2022-12-15T03:30:50.558Z,-6.20
2022-12-15T03:33:22.051Z,-6.10
2022-12-15T03:35:53.482Z,-6.10
2022-12-15T03:38:22.019Z,-6.00
2022-12-15T03:40:50.274Z,-6.10
2022-12-15T03:43:18.596Z,-6.10
2022-12-15T03:45:47.390Z,-6.00
2022-12-15T03:48:18.337Z,-6.00
2022-12-15T03:50:49.927Z,-6.00
2022-12-15T03:53:18.493Z,-6.00
2022-12-15T03:55:49.992Z,-6.00
2022-12-15T03:58:18.598Z,-6.00
2022-12-15T04:00:47.138Z,-6.10
2022-12-15T04:03:16.179Z,-6.20
2022-12-15T04:05:47.458Z,-6.20
2022-12-15T04:08:17.366Z,-6.30
2022-12-15T04:10:55.910Z,-6.30
2022-12-15T04:13:34.228Z,-6.30
2022-12-15T04:16:03.774Z,-6.30
2022-12-15T04:18:36.235Z,-6.10
2022-12-15T04:21:04.529Z,-6.00
2022-12-15T04:23:37.972Z,-6.00
2022-12-15T04:26:27.608Z,-6.00
2022-12-15T04:29:14.799Z,-6.00
2022-12-15T04:32:13.121Z,-6.00
2022-12-15T04:35:14.193Z,-6.00
2022-12-15T04:38:03.694Z,-6.00
2022-12-15T04:40:54.780Z,-5.90
2022-12-15T04:43:55.503Z,-5.90
2022-12-15T04:47:06.566Z,-5.80
2022-12-15T04:49:55.322Z,-5.70
2022-12-15T04:52:51.324Z,-5.70
2022-12-15T04:55:48.813Z,-5.80
2022-12-15T04:58:43.361Z,-5.80
2022-12-15T05:01:32.460Z,-5.90
2022-12-15T05:04:26.722Z,-6.00
2022-12-15T05:07:13.835Z,-6.30
2022-12-15T05:10:08.249Z,-6.50
2022-12-15T05:13:03.393Z,-6.70
2022-12-15T05:16:01.957Z,-6.90
2022-12-15T05:18:54.406Z,-7.10
2022-12-15T05:21:46.471Z,-7.10
2022-12-15T05:24:43.862Z,-7.30
2022-12-15T05:27:36.598Z,-7.40
2022-12-15T05:30:29.826Z,-7.50
2022-12-15T05:33:09.601Z,-7.60
2022-12-15T05:35:44.041Z,-7.70
2022-12-15T05:38:23.049Z,-7.60
2022-12-15T05:41:02.586Z,-7.40
2022-12-15T05:43:35.286Z,-7.40
2022-12-15T05:46:08.371Z,-7.40
2022-12-15T05:48:38.772Z,-7.40
2022-12-15T05:51:09.154Z,-7.50
2022-12-15T05:53:58.686Z,-7.40
2022-12-15T05:56:44.818Z,-7.50
2022-12-15T05:59:15.897Z,-7.60
2022-12-15T06:01:44.947Z,-7.80
2022-12-15T06:04:22.347Z,-8.00
2022-12-15T06:06:59.969Z,-8.30
2022-12-15T06:09:29.139Z,-8.40
2022-12-15T06:11:58.071Z,-8.50
2022-12-15T06:14:39.293Z,-8.60
2022-12-15T06:17:08.659Z,-8.60
2022-12-15T06:19:38.672Z,-8.80
2022-12-15T06:22:07.762Z,-8.80
2022-12-15T06:24:36.779Z,-8.90
2022-12-15T06:27:06.659Z,-9.00
2022-12-15T06:29:35.779Z,-9.00
2022-12-15T06:32:05.397Z,-9.20
2022-12-15T06:34:34.179Z,-9.20
2022-12-15T06:37:04.692Z,-9.30
2022-12-15T06:39:36.917Z,-9.30
2022-12-15T06:42:06.077Z,-9.40
2022-12-15T06:44:35.190Z,-9.50
2022-12-15T06:47:04.203Z,-9.60
2022-12-15T06:49:35.869Z,-9.70
2022-12-15T06:52:06.103Z,-9.80
2022-12-15T06:54:34.639Z,-10.00
2022-12-15T06:57:03.691Z,-10.10
2022-12-15T06:59:36.593Z,-10.10
2022-12-15T07:02:16.648Z,-10.10
2022-12-15T07:04:48.703Z,-10.30
2022-12-15T07:07:20.138Z,-10.40
2022-12-15T07:09:58.679Z,-10.40
2022-12-15T07:12:34.684Z,-10.30
2022-12-15T07:15:10.923Z,-10.30
2022-12-15T07:17:42.780Z,-10.30
2022-12-15T07:20:12.719Z,-10.30
2022-12-15T07:22:43.228Z,-10.20
2022-12-15T07:25:21.689Z,-10.30
2022-12-15T07:27:53.147Z,-10.20
2022-12-15T07:30:21.733Z,-10.20
2022-12-15T07:32:56.769Z,-10.20
2022-12-15T07:35:25.507Z,-10.10
2022-12-15T07:37:58.333Z,-10.10
2022-12-15T07:40:27.468Z,-10.20
2022-12-15T07:42:56.791Z,-10.00
2022-12-15T07:45:25.877Z,-10.10
2022-12-15T07:47:54.793Z,-10.20
2022-12-15T07:50:26.635Z,-10.20
2022-12-15T07:53:01.046Z,-10.20
2022-12-15T07:55:57.202Z,-10.10
2022-12-15T07:58:18.712Z,-10.10
2022-12-15T08:00:49.085Z,-10.00
2022-12-15T08:03:18.847Z,-9.90
2022-12-15T08:05:48.511Z,-9.80
2022-12-15T08:08:18.950Z,-9.70
2022-12-15T08:10:48.178Z,-9.50
2022-12-15T08:13:38.069Z,-9.30
2022-12-15T08:16:07.404Z,-9.20
2022-12-15T08:18:49.293Z,-9.00
2022-12-15T08:21:31.281Z,-8.90
2022-12-15T08:24:30.979Z,-8.70
2022-12-15T08:27:28.773Z,-8.60
2022-12-15T08:30:09.772Z,-8.40
2022-12-15T08:32:41.407Z,-8.30
2022-12-15T08:35:38.919Z,-8.20
2022-12-15T08:38:05.676Z,-8.00
2022-12-15T08:40:39.252Z,-7.90
2022-12-15T08:43:13.000Z,-7.90
2022-12-15T08:45:45.972Z,-7.80
2022-12-15T08:48:17.421Z,-7.90
2022-12-15T08:50:47.324Z,-7.90
2022-12-15T08:53:32.196Z,-7.80
2022-12-15T08:56:08.221Z,-7.70
2022-12-15T08:58:37.568Z,-7.70
2022-12-15T09:01:20.722Z,-7.70
2022-12-15T09:03:52.036Z,-7.50
2022-12-15T09:06:24.435Z,-7.50
2022-12-15T09:09:03.313Z,-7.40
2022-12-15T09:11:34.908Z,-7.20
2022-12-15T09:14:04.534Z,-7.10
2022-12-15T09:16:33.670Z,-6.80
2022-12-15T09:19:02.955Z,-6.50
2022-12-15T09:21:32.661Z,-6.40
2022-12-15T09:24:03.356Z,-6.40
2022-12-15T09:26:36.021Z,-6.30
2022-12-15T09:29:05.106Z,-6.20
2022-12-15T09:31:37.769Z,-6.10
2022-12-15T09:34:08.305Z,-6.00
2022-12-15T09:36:37.426Z,-6.00
2022-12-15T09:39:06.452Z,-5.90
2022-12-15T09:41:47.626Z,-5.80
2022-12-15T09:44:32.409Z,-5.80
2022-12-15T09:47:30.064Z,-5.80
2022-12-15T09:50:03.125Z,-5.80
2022-12-15T09:52:34.812Z,-5.70
2022-12-15T09:55:17.355Z,-5.70
2022-12-15T09:57:52.824Z,-5.60
2022-12-15T10:00:34.562Z,-5.50
2022-12-15T10:03:56.801Z,-5.30
2022-12-15T10:06:45.025Z,-5.10
2022-12-15T10:09:27.560Z,-5.00
2022-12-15T10:12:02.136Z,-5.00
2022-12-15T10:14:37.126Z,-4.90
2022-12-15T10:17:19.024Z,-4.90
2022-12-15T10:20:01.680Z,-4.90
2022-12-15T10:22:33.900Z,-5.00
2022-12-15T10:25:10.875Z,-5.00
2022-12-15T10:28:06.591Z,-5.10
2022-12-15T10:30:37.110Z,-5.20
2022-12-15T10:33:17.654Z,-5.20
2022-12-15T10:35:49.466Z,-5.20
2022-12-15T10:38:26.313Z,-5.30
2022-12-15T10:40:57.114Z,-5.30
2022-12-15T10:43:30.293Z,-5.30
2022-12-15T10:46:06.639Z,-5.30
2022-12-15T10:48:39.056Z,-5.30
2022-12-15T10:51:18.978Z,-5.40
2022-12-15T10:53:50.891Z,-5.30
2022-12-15T10:56:28.809Z,-5.20
2022-12-15T10:59:04.718Z,-4.90
2022-12-15T11:01:36.006Z,-4.60
2022-12-15T11:04:07.567Z,-4.50
2022-12-15T11:06:37.052Z,-4.40
2022-12-15T11:09:29.506Z,-4.40
2022-12-15T11:12:15.381Z,-4.20
2022-12-15T11:14:51.488Z,-4.20
2022-12-15T11:17:23.637Z,-4.00
2022-12-15T11:22:53.231Z,-3.70
2022-12-15T11:25:26.272Z,-3.70
2022-12-15T11:27:58.846Z,-3.60
2022-12-15T11:30:31.425Z,-3.60
2022-12-15T11:33:03.406Z,-3.60
2022-12-15T11:35:41.310Z,-3.60
2022-12-15T11:38:19.540Z,-3.60
2022-12-15T11:40:47.961Z,-3.60
2022-12-15T11:43:32.852Z,-3.60
2022-12-15T11:46:22.740Z,-3.60
2022-12-15T11:49:11.232Z,-3.60
2022-12-15T11:51:45.587Z,-3.70
2022-12-15T11:54:20.879Z,-3.60
2022-12-15T11:56:53.993Z,-3.70
2022-12-15T11:59:53.475Z,-3.70
2022-12-15T12:02:48.498Z,-3.80
2022-12-15T12:05:38.448Z,-3.90
2022-12-15T12:08:28.753Z,-4.00
2022-12-15T12:11:05.972Z,-4.00
2022-12-15T12:13:41.126Z,-4.00
2022-12-15T12:16:19.506Z,-4.30
2022-12-15T12:18:53.738Z,-4.40
2022-12-15T12:21:28.685Z,-4.60
2022-12-15T12:24:02.087Z,-4.80
2022-12-15T12:26:36.629Z,-4.90
2022-12-15T12:29:14.322Z,-5.00
2022-12-15T12:31:51.594Z,-5.00
2022-12-15T12:34:27.559Z,-5.10
2022-12-15T12:37:13.768Z,-5.10
2022-12-15T12:39:42.953Z,-5.00
2022-12-15T12:42:16.921Z,-5.00
2022-12-15T12:44:45.200Z,-4.80
2022-12-15T12:47:23.274Z,-4.70
2022-12-15T12:49:55.813Z,-4.50
2022-12-15T12:52:34.797Z,-4.40
2022-12-15T12:55:09.521Z,-4.20
2022-12-15T12:57:42.317Z,-4.00
2022-12-15T13:00:18.346Z,-3.90
2022-12-15T13:03:16.360Z,-3.80
2022-12-15T13:05:46.963Z,-3.80
2022-12-15T13:08:50.987Z,-3.70
2022-12-15T13:12:00.828Z,-3.50
2022-12-15T13:14:37.970Z,-3.20
2022-12-15T13:17:29.486Z,-3.10
2022-12-15T13:20:27.690Z,-2.90
2022-12-15T13:22:58.150Z,-2.80
2022-12-15T13:26:03.382Z,-2.80
2022-12-15T13:28:44.304Z,-2.90
2022-12-15T13:31:30.263Z,-3.00
2022-12-15T13:34:18.133Z,-3.20
2022-12-15T13:36:57.836Z,-3.40
2022-12-15T13:39:58.303Z,-3.50
2022-12-15T13:42:48.227Z,-3.80
2022-12-15T13:45:58.418Z,-4.00
2022-12-15T13:48:35.748Z,-4.30
2022-12-15T13:51:14.575Z,-4.50
2022-12-15T13:56:56.005Z,-4.80
2022-12-15T13:59:42.966Z,-5.10
2022-12-15T14:02:28.831Z,-5.30
2022-12-15T14:05:16.291Z,-5.60
2022-12-15T14:07:54.493Z,-5.80
2022-12-15T14:10:26.280Z,-5.90
2022-12-15T14:12:58.299Z,-6.00
2022-12-15T14:15:35.241Z,-6.10
2022-12-15T14:18:47.707Z,-6.10
2022-12-15T14:21:27.733Z,-6.30
2022-12-15T14:24:36.853Z,-6.50
2022-12-15T14:27:02.430Z,-6.70
2022-12-15T14:29:41.174Z,-6.90
2022-12-15T14:32:13.284Z,-7.10
2022-12-15T14:34:50.573Z,-7.10
2022-12-15T14:37:23.030Z,-7.10
2022-12-15T14:39:58.354Z,-7.30
2022-12-15T14:42:37.030Z,-7.40
2022-12-15T14:45:08.287Z,-7.60
2022-12-15T14:47:41.832Z,-7.80
2022-12-15T14:53:14.126Z,-8.00
2022-12-15T14:55:49.011Z,-8.20
2022-12-15T14:58:34.827Z,-8.20
2022-12-15T15:01:26.445Z,-8.40
2022-12-15T15:03:14.539Z,-7.90
2022-12-15T15:04:04.000Z,-8.50
2022-12-15T15:06:39.961Z,-8.60
2022-12-15T15:09:27.315Z,-8.60
2022-12-15T15:12:00.748Z,-8.80
2022-12-15T15:14:34.889Z,-8.90
2022-12-15T15:17:19.462Z,-9.00
2022-12-15T15:19:54.203Z,-9.10
2022-12-15T15:22:41.435Z,-9.30
2022-12-15T15:25:40.009Z,-9.40
2022-12-15T15:28:23.593Z,-9.40
2022-12-15T15:30:54.387Z,-9.50
2022-12-15T15:33:28.036Z,-9.50
2022-12-15T15:36:00.362Z,-9.60
2022-12-15T15:38:35.767Z,-9.60
2022-12-15T15:41:17.864Z,-9.70
2022-12-15T15:43:50.090Z,-9.80
2022-12-15T15:46:23.722Z,-9.90
2022-12-15T15:48:55.146Z,-10.00
2022-12-15T15:51:26.030Z,-10.10
2022-12-15T15:53:56.432Z,-10.10
2022-12-15T15:56:27.116Z,-10.10
2022-12-15T15:58:55.881Z,-10.10
2022-12-15T16:01:27.967Z,-10.20
2022-12-15T16:03:59.652Z,-10.30
2022-12-15T16:06:30.277Z,-10.40
2022-12-15T16:08:59.666Z,-10.60
2022-12-15T16:11:32.641Z,-10.60
2022-12-15T16:14:01.554Z,-10.60
2022-12-15T16:16:34.694Z,-10.50
2022-12-15T16:19:03.958Z,-10.60
2022-12-15T16:21:35.106Z,-10.70
2022-12-15T16:24:09.815Z,-10.70
2022-12-15T16:26:39.333Z,-10.80
2022-12-15T16:29:19.503Z,-10.90
2022-12-15T16:31:48.579Z,-11.00
2022-12-15T16:34:20.281Z,-11.00
2022-12-15T16:36:53.410Z,-11.10
2022-12-15T16:39:28.340Z,-11.20
2022-12-15T16:41:57.849Z,-11.20
2022-12-15T16:44:29.401Z,-11.30
2022-12-15T16:47:01.436Z,-11.30
2022-12-15T16:49:35.145Z,-11.40
2022-12-15T16:52:15.494Z,-11.50
2022-12-15T16:54:46.670Z,-11.60
2022-12-15T16:57:15.654Z,-11.60
2022-12-15T16:59:44.385Z,-11.60
2022-12-15T17:02:27.577Z,-11.70
2022-12-15T17:04:59.262Z,-11.60
2022-12-15T17:07:29.884Z,-11.60
2022-12-15T17:10:02.337Z,-11.70
2022-12-15T17:12:31.551Z,-11.70
2022-12-15T17:15:02.598Z,-11.70
2022-12-15T17:17:32.519Z,-11.70
2022-12-15T17:20:31.562Z,-11.70
2022-12-15T17:22:57.082Z,-11.70
2022-12-15T17:26:17.206Z,-11.60
2022-12-15T17:28:31.219Z,-11.50
2022-12-15T17:31:00.904Z,-11.40
2022-12-15T17:33:32.187Z,-11.40
2022-12-15T17:36:03.224Z,-11.40
2022-12-15T17:38:33.686Z,-11.30
2022-12-15T17:41:02.790Z,-11.30
2022-12-15T17:43:35.745Z,-11.20
2022-12-15T17:46:05.091Z,-11.20
2022-12-15T17:48:36.700Z,-11.10
2022-12-15T17:51:16.182Z,-11.10
2022-12-15T17:53:50.421Z,-10.90
2022-12-15T17:56:21.114Z,-11.10
2022-12-15T17:58:52.457Z,-11.10
2022-12-15T18:01:21.622Z,-11.00
2022-12-15T18:03:53.459Z,-10.90
2022-12-15T18:06:24.542Z,-10.90
2022-12-15T18:08:54.860Z,-10.90
2022-12-15T18:11:24.036Z,-10.90
2022-12-15T18:13:52.502Z,-10.90
2022-12-15T18:16:21.650Z,-11.00
2022-12-15T18:18:53.609Z,-11.00
2022-12-15T18:21:22.489Z,-10.90
2022-12-15T18:23:51.029Z,-10.90
2022-12-15T18:26:25.189Z,-10.80
2022-12-15T18:28:54.060Z,-10.60
2022-12-15T18:31:26.231Z,-10.60
2022-12-15T18:34:01.068Z,-10.40
2022-12-15T18:36:31.630Z,-10.30
2022-12-15T18:39:00.601Z,-10.20
2022-12-15T18:41:35.755Z,-10.10
2022-12-15T18:44:04.634Z,-10.00
2022-12-15T18:46:33.177Z,-9.90
2022-12-15T18:49:02.231Z,-9.80
2022-12-15T18:51:31.536Z,-9.70
2022-12-15T18:54:00.965Z,-9.60
2022-12-15T18:56:31.460Z,-9.50
2022-12-15T18:58:59.975Z,-9.40
2022-12-15T19:01:28.629Z,-9.30
2022-12-15T19:03:57.829Z,-9.30
2022-12-15T19:06:35.002Z,-9.20
2022-12-15T19:09:05.038Z,-9.20
2022-12-15T19:11:35.429Z,-9.20
2022-12-15T19:14:25.859Z,-9.20
2022-12-15T19:17:11.855Z,-9.10
2022-12-15T19:20:03.230Z,-9.00
2022-12-15T19:22:34.494Z,-9.00
2022-12-15T19:25:06.519Z,-8.90
2022-12-15T19:27:36.855Z,-8.90
2022-12-15T19:30:15.110Z,-8.80
2022-12-15T19:32:46.750Z,-8.80
2022-12-15T19:35:18.760Z,-8.70
2022-12-15T19:37:55.425Z,-8.60
2022-12-15T19:40:27.797Z,-8.60
2022-12-15T19:42:59.273Z,-8.60
2022-12-15T19:45:33.425Z,-8.60
2022-12-15T19:48:05.638Z,-8.60
2022-12-15T19:50:39.617Z,-8.50
2022-12-15T19:53:22.968Z,-8.50
2022-12-15T19:55:53.614Z,-8.50
2022-12-15T19:58:30.892Z,-8.50
2022-12-15T20:01:02.596Z,-8.40
2022-12-15T20:03:33.239Z,-8.40
2022-12-15T20:06:07.640Z,-8.40
2022-12-15T20:08:45.049Z,-8.30
2022-12-15T20:11:20.585Z,-8.30
2022-12-15T20:13:55.113Z,-8.20
2022-12-15T20:16:30.237Z,-8.20
2022-12-15T20:19:03.762Z,-8.10
2022-12-15T20:21:38.758Z,-8.00
2022-12-15T20:24:14.758Z,-8.00
2022-12-15T20:26:51.736Z,-8.00
2022-12-15T20:29:41.677Z,-7.90
2022-12-15T20:32:18.430Z,-7.80
2022-12-15T20:34:56.748Z,-7.80
2022-12-15T20:37:34.566Z,-7.80
2022-12-15T20:40:03.391Z,-7.70
2022-12-15T20:42:32.418Z,-7.40
2022-12-15T20:45:09.959Z,-7.30
2022-12-15T20:47:47.601Z,-7.20
2022-12-15T20:50:29.921Z,-7.20
2022-12-15T20:52:59.003Z,-7.30
2022-12-15T20:55:27.542Z,-7.30
2022-12-15T20:58:00.277Z,-7.30
2022-12-15T21:00:31.261Z,-7.30
2022-12-15T21:03:25.678Z,-7.40
2022-12-15T21:05:56.058Z,-7.40
2022-12-15T21:08:29.781Z,-7.40
2022-12-15T21:11:02.522Z,-7.30
2022-12-15T21:13:35.635Z,-7.30
2022-12-15T21:16:07.021Z,-7.20
2022-12-15T21:21:29.406Z,-7.20
2022-12-15T21:24:06.138Z,-7.20
2022-12-15T21:26:41.947Z,-7.30
2022-12-15T21:29:15.936Z,-7.30
2022-12-15T21:31:46.593Z,-7.30
2022-12-15T21:34:21.043Z,-7.30
2022-12-15T21:36:55.152Z,-7.30
2022-12-15T21:39:29.605Z,-7.30
2022-12-15T21:42:02.531Z,-7.40
2022-12-15T21:44:34.542Z,-7.40
2022-12-15T21:47:12.399Z,-7.40
2022-12-15T21:49:39.978Z,-7.40
2022-12-15T21:52:13.711Z,-7.30
2022-12-15T21:54:45.224Z,-7.40
2022-12-15T21:57:17.458Z,-7.30
2022-12-15T21:59:45.865Z,-7.40
2022-12-15T22:02:26.212Z,-7.40
2022-12-15T22:04:55.430Z,-7.40
2022-12-15T22:07:26.286Z,-7.30
2022-12-15T22:09:56.176Z,-7.40
2022-12-15T22:12:26.944Z,-7.40
2022-12-15T22:14:58.569Z,-7.30
2022-12-15T22:17:29.364Z,-7.30
2022-12-15T22:19:58.135Z,-7.40
2022-12-15T22:22:31.669Z,-7.30
2022-12-15T22:25:00.784Z,-7.30
2022-12-15T22:27:35.068Z,-7.30
2022-12-15T22:30:04.607Z,-7.40
2022-12-15T22:32:38.185Z,-7.30
2022-12-15T22:35:18.585Z,-7.30
2022-12-15T22:37:55.257Z,-7.30
2022-12-15T22:40:31.534Z,-7.30
2022-12-15T22:43:08.787Z,-7.30
2022-12-15T22:45:42.884Z,-7.30
2022-12-15T22:48:16.592Z,-7.20
2022-12-15T22:50:45.467Z,-7.20
2022-12-15T22:53:16.111Z,-7.20
2022-12-15T22:55:54.301Z,-7.20
2022-12-15T22:58:30.653Z,-7.20
2022-12-15T23:01:01.091Z,-7.10
2022-12-15T23:03:35.596Z,-7.10
2022-12-15T23:06:06.082Z,-7.10
2022-12-15T23:08:35.194Z,-7.10
2022-12-15T23:11:22.182Z,-7.10
2022-12-15T23:13:51.230Z,-7.10
2022-12-15T23:16:19.687Z,-7.10
2022-12-15T23:18:52.577Z,-7.00
2022-12-15T23:21:34.357Z,-7.00
2022-12-15T23:24:03.219Z,-6.90
2022-12-15T23:26:31.903Z,-6.90
2022-12-15T23:29:01.407Z,-6.90
2022-12-15T23:31:35.513Z,-6.90
2022-12-15T23:34:07.895Z,-6.80
2022-12-15T23:36:53.946Z,-6.80
2022-12-15T23:39:24.624Z,-6.80
2022-12-15T23:41:57.122Z,-6.80
2022-12-15T23:44:26.093Z,-6.80
2022-12-15T23:46:57.903Z,-6.80
2022-12-15T23:49:28.039Z,-6.80
2022-12-15T23:52:00.193Z,-6.70
2022-12-15T23:54:29.641Z,-6.70
2022-12-15T23:56:58.631Z,-6.60
2022-12-15T23:59:27.115Z,-6.50
